createdAt,value
2022-11-16T00:02:15.769Z,3.80
2022-11-16T00:05:09.404Z,3.35
2022-11-16T00:07:36.326Z,3.45
2022-11-16T00:10:03.226Z,3.38
2022-11-16T00:13:07.222Z,3.70
2022-11-16T00:15:34.074Z,3.85
2022-11-16T00:18:06.858Z,3.53
2022-11-16T00:20:33.676Z,3.45
2022-11-16T00:23:03.649Z,3.78
2022-11-16T00:25:36.522Z,3.45
2022-11-16T00:28:05.839Z,4.05
2022-11-16T00:30:32.629Z,3.17
2022-11-16T00:36:40.691Z,3.60
2022-11-16T00:39:20.879Z,3.63
2022-11-16T00:41:48.410Z,3.53
2022-11-16T00:44:15.625Z,3.70
2022-11-16T00:46:42.855Z,3.22
2022-11-16T00:49:10.101Z,3.50
2022-11-16T00:54:22.220Z,3.13
2022-11-16T01:00:27.486Z,3.28
2022-11-16T01:02:54.702Z,2.70
2022-11-16T01:05:22.250Z,3.58
2022-11-16T01:13:00.138Z,3.08
2022-11-16T01:15:28.067Z,2.83
2022-11-16T01:18:21.839Z,2.90
2022-11-16T01:20:48.659Z,3.03
2022-11-16T01:24:03.976Z,3.20
2022-11-16T01:30:49.714Z,2.75
2022-11-16T01:33:16.449Z,2.95
2022-11-16T01:36:17.191Z,2.97
2022-11-16T01:38:45.846Z,3.28
2022-11-16T01:41:23.716Z,2.78
2022-11-16T01:43:59.872Z,3.13
2022-11-16T01:46:45.016Z,3.42
2022-11-16T01:49:17.010Z,2.63
2022-11-16T01:51:48.280Z,3.03
2022-11-16T01:54:17.994Z,2.20
2022-11-16T02:00:18.588Z,2.70
2022-11-16T02:02:45.350Z,2.80
2022-11-16T02:05:43.050Z,2.60
2022-11-16T02:11:02.826Z,3.05
2022-11-16T02:14:06.836Z,3.05
2022-11-16T02:19:52.787Z,2.67
2022-11-16T02:22:33.507Z,2.88
2022-11-16T02:28:16.649Z,2.90
2022-11-16T02:30:47.595Z,2.30
2022-11-16T02:33:20.097Z,2.45
2022-11-16T02:35:53.489Z,2.47
2022-11-16T02:38:27.889Z,2.75
2022-11-16T02:41:04.638Z,2.72
2022-11-16T02:43:44.021Z,2.63
2022-11-16T02:46:21.868Z,2.58
2022-11-16T02:52:37.628Z,2.60
2022-11-16T02:55:05.019Z,2.55
2022-11-16T02:57:40.598Z,2.70
2022-11-16T03:00:10.454Z,2.80
2022-11-16T03:02:59.327Z,2.47
2022-11-16T03:05:42.248Z,2.85
2022-11-16T03:08:20.885Z,3.50
2022-11-16T03:11:11.336Z,2.50
2022-11-16T03:13:39.854Z,2.53
2022-11-16T03:16:20.882Z,2.53
2022-11-16T03:18:56.001Z,2.70
2022-11-16T03:21:35.126Z,2.08
2022-11-16T03:24:02.236Z,2.25
2022-11-16T03:26:36.039Z,2.33
2022-11-16T03:29:18.107Z,2.50
2022-11-16T03:31:55.667Z,2.80
2022-11-16T03:34:27.201Z,2.13
2022-11-16T03:36:55.783Z,2.25
2022-11-16T03:39:34.482Z,2.63
2022-11-16T03:44:30.316Z,2.35
2022-11-16T03:46:57.201Z,2.30
2022-11-16T03:49:24.229Z,2.10
2022-11-16T03:51:51.257Z,2.38
2022-11-16T03:54:28.446Z,2.25
2022-11-16T03:56:55.118Z,2.33
2022-11-16T03:59:21.823Z,2.42
2022-11-16T04:01:48.576Z,2.30
2022-11-16T04:04:38.048Z,2.10
2022-11-16T04:07:41.366Z,2.42
2022-11-16T04:10:27.879Z,1.90
2022-11-16T04:13:13.768Z,2.10
2022-11-16T04:15:59.232Z,2.08
2022-11-16T04:18:44.517Z,2.03
2022-11-16T04:21:53.816Z,2.17
2022-11-16T04:24:23.904Z,2.25
2022-11-16T04:27:14.286Z,2.78
2022-11-16T04:29:42.040Z,2.35
2022-11-16T04:32:28.482Z,2.17
2022-11-16T04:35:14.360Z,2.30
2022-11-16T04:37:50.094Z,1.98
2022-11-16T04:40:18.238Z,2.53
2022-11-16T04:42:55.006Z,2.03
2022-11-16T04:45:41.270Z,2.20
2022-11-16T04:48:08.488Z,2.30
2022-11-16T04:50:42.617Z,1.90
2022-11-16T04:53:09.472Z,2.67
2022-11-16T04:55:51.277Z,2.10
2022-11-16T05:01:54.627Z,2.10
2022-11-16T05:07:11.955Z,2.30
2022-11-16T05:09:44.071Z,2.38
2022-11-16T05:12:14.779Z,1.73
2022-11-16T05:25:16.238Z,1.50
2022-11-16T05:27:42.949Z,1.73
2022-11-16T05:32:55.991Z,2.30
2022-11-16T05:35:22.733Z,1.85
2022-11-16T05:38:30.720Z,1.90
2022-11-16T05:45:31.134Z,2.00
2022-11-16T05:50:43.162Z,2.10
2022-11-16T05:53:10.249Z,2.20
2022-11-16T05:58:19.287Z,1.83
2022-11-16T06:00:49.392Z,1.60
2022-11-16T06:06:16.861Z,2.08
2022-11-16T06:09:24.470Z,1.80
2022-11-16T06:19:22.375Z,1.90
2022-11-16T06:27:17.399Z,1.80
2022-11-16T06:36:34.910Z,1.80
2022-11-16T06:45:17.201Z,2.15
2022-11-16T06:50:45.251Z,1.83
2022-11-16T06:57:07.035Z,1.90
2022-11-16T07:05:58.094Z,2.08
2022-11-16T07:08:24.824Z,1.70
2022-11-16T07:10:51.544Z,1.75
2022-11-16T07:13:20.897Z,1.75
2022-11-16T07:16:24.300Z,2.03
2022-11-16T07:18:52.010Z,1.60
2022-11-16T07:21:19.246Z,1.67
2022-11-16T07:29:39.017Z,1.85
2022-11-16T07:38:28.159Z,2.13
2022-11-16T07:40:55.332Z,1.52
2022-11-16T07:44:08.371Z,1.50
2022-11-16T07:47:01.984Z,1.60
2022-11-16T07:49:45.658Z,1.60
2022-11-16T07:52:15.678Z,1.85
2022-11-16T07:54:42.838Z,1.48
2022-11-16T08:19:18.177Z,1.55
2022-11-16T08:22:36.883Z,1.65
2022-11-16T08:25:04.629Z,1.45
2022-11-16T08:27:48.435Z,1.30
2022-11-16T08:30:15.706Z,1.58
2022-11-16T08:35:44.252Z,1.33
2022-11-16T08:38:12.035Z,1.58
2022-11-16T08:49:54.620Z,1.45
2022-11-16T09:18:55.605Z,1.38
2022-11-16T09:25:40.194Z,1.33
2022-11-16T09:28:07.862Z,1.17
2022-11-16T09:33:19.083Z,1.40
2022-11-16T09:35:50.474Z,1.55
2022-11-16T09:38:24.175Z,1.23
2022-11-16T09:51:31.860Z,1.55
2022-11-16T09:54:08.214Z,1.45
2022-11-16T09:59:32.105Z,1.33
2022-11-16T10:06:10.554Z,1.20
2022-11-16T10:25:25.915Z,1.33
2022-11-16T10:28:34.232Z,1.30
2022-11-16T10:52:26.180Z,1.17
2022-11-16T10:54:56.395Z,1.23
2022-11-16T11:18:15.071Z,0.93
2022-11-16T11:21:18.071Z,1.00
2022-11-16T11:26:46.704Z,0.80
2022-11-16T11:29:36.905Z,0.80
2022-11-16T11:32:50.922Z,1.00
2022-11-16T11:38:23.288Z,0.90
2022-11-16T11:48:01.215Z,1.00
2022-11-16T11:54:31.754Z,0.98
2022-11-16T11:57:01.156Z,0.77
2022-11-16T12:00:12.109Z,1.20
2022-11-16T12:03:01.147Z,1.08
2022-11-16T12:05:40.336Z,1.30
2022-11-16T12:19:33.401Z,1.20
2022-11-16T12:25:39.655Z,1.20
2022-11-16T12:28:28.524Z,0.88
2022-11-16T12:31:24.189Z,1.00
2022-11-16T12:44:15.131Z,1.17
2022-11-16T12:47:51.656Z,1.25
2022-11-16T13:49:38.268Z,1.35
2022-11-16T13:52:23.619Z,1.20
2022-11-16T14:26:32.704Z,1.73
2022-11-16T14:29:08.866Z,1.30
2022-11-16T14:35:09.528Z,1.23
2022-11-16T14:38:04.521Z,1.40
2022-11-16T14:47:15.352Z,1.60
2022-11-16T14:49:59.465Z,1.60
2022-11-16T14:55:10.186Z,1.67
2022-11-16T14:57:36.918Z,2.10
2022-11-16T15:00:21.691Z,1.45
2022-11-16T15:02:53.636Z,1.90
2022-11-16T15:05:29.392Z,1.90
2022-11-16T15:07:59.939Z,1.58
2022-11-16T15:10:29.034Z,1.88
2022-11-16T15:16:27.324Z,1.90
2022-11-16T15:19:01.728Z,1.63
2022-11-16T15:21:31.368Z,1.90
2022-11-16T15:26:45.267Z,1.70
2022-11-16T15:29:47.084Z,1.70
2022-11-16T15:32:43.246Z,1.30
2022-11-16T15:35:24.821Z,1.40
2022-11-16T15:38:04.889Z,1.70
2022-11-16T15:40:38.386Z,1.60
2022-11-16T15:43:06.677Z,1.63
2022-11-16T15:45:42.027Z,1.35
2022-11-16T15:48:18.904Z,1.55
2022-11-16T15:51:07.825Z,2.08
2022-11-16T15:53:41.970Z,1.75
2022-11-16T15:56:43.069Z,1.75
2022-11-16T15:59:38.506Z,1.42
2022-11-16T16:02:23.811Z,1.40
2022-11-16T16:07:58.425Z,1.10
2022-11-16T16:10:25.768Z,1.30
2022-11-16T16:12:54.655Z,1.65
2022-11-16T16:17:54.451Z,1.73
2022-11-16T16:20:23.958Z,1.38
2022-11-16T16:23:16.681Z,1.50
2022-11-16T16:25:49.051Z,1.60
2022-11-16T16:28:17.189Z,1.63
2022-11-16T16:30:43.928Z,1.65
2022-11-16T16:33:19.021Z,1.60
2022-11-16T16:42:22.867Z,1.45
2022-11-16T16:44:55.907Z,1.77
2022-11-16T16:47:22.958Z,1.35
2022-11-16T16:49:59.439Z,1.90
2022-11-16T16:55:37.287Z,1.20
2022-11-16T16:58:05.892Z,1.55
2022-11-16T17:00:32.931Z,1.80
2022-11-16T17:03:03.055Z,1.83
2022-11-16T17:05:32.818Z,1.75
2022-11-16T17:08:05.992Z,1.90
2022-11-16T17:10:32.720Z,1.40
2022-11-16T17:20:22.796Z,1.42
2022-11-16T17:22:49.477Z,1.27
2022-11-16T17:25:16.403Z,1.90
2022-11-16T17:27:43.257Z,1.90
2022-11-16T17:30:10.640Z,1.40
2022-11-16T17:32:41.311Z,1.60
2022-11-16T17:35:50.187Z,1.50
2022-11-16T17:38:20.325Z,1.50
2022-11-16T17:50:32.061Z,1.92
2022-11-16T18:06:57.046Z,2.08
2022-11-16T18:24:07.215Z,1.85
2022-11-16T18:44:51.397Z,2.15
2022-11-16T18:47:25.523Z,2.20
2022-11-16T19:12:00.050Z,2.15
2022-11-16T19:14:52.729Z,2.78
2022-11-16T19:17:21.042Z,2.10
2022-11-16T19:29:29.956Z,2.03
2022-11-16T19:35:18.271Z,2.10
2022-11-16T19:40:19.801Z,2.22
2022-11-16T19:46:38.324Z,2.00
2022-11-16T19:49:23.188Z,2.45
2022-11-16T19:51:50.184Z,2.20
2022-11-16T19:57:20.587Z,2.53
2022-11-16T19:59:53.628Z,2.25
2022-11-16T20:02:26.539Z,2.33
2022-11-16T20:12:23.493Z,2.58
2022-11-16T20:21:59.961Z,1.90
2022-11-16T20:24:36.410Z,1.83
2022-11-16T20:27:03.352Z,1.88
2022-11-16T20:29:58.142Z,2.10
2022-11-16T20:39:30.094Z,1.95
2022-11-16T20:42:57.013Z,1.73
2022-11-16T20:49:37.247Z,2.28
2022-11-16T20:53:16.919Z,1.95
2022-11-16T20:55:49.778Z,2.97
2022-11-16T20:58:22.386Z,2.53
2022-11-16T21:01:13.970Z,1.80
2022-11-16T21:41:45.061Z,2.05
2022-11-16T21:48:02.892Z,2.03
2022-11-16T21:56:24.127Z,2.15
2022-11-16T22:09:02.397Z,2.55
2022-11-16T22:11:32.153Z,2.75
2022-11-16T22:13:58.909Z,3.00
2022-11-16T22:16:30.274Z,3.15
2022-11-16T22:25:53.769Z,2.10
2022-11-16T22:28:31.734Z,2.42
2022-11-16T22:38:02.925Z,2.35
2022-11-16T22:40:42.703Z,2.50
2022-11-16T22:46:13.656Z,2.42
2022-11-16T22:48:54.550Z,2.25
2022-11-16T22:51:39.937Z,2.30
2022-11-16T23:03:44.426Z,2.22
2022-11-16T23:06:20.447Z,2.25
2022-11-16T23:12:13.952Z,2.15
2022-11-16T23:18:04.549Z,1.95
2022-11-16T23:20:55.907Z,2.45
2022-11-16T23:30:42.408Z,1.65
2022-11-16T23:37:44.007Z,1.98
2022-11-16T23:40:13.494Z,2.00
2022-11-16T23:43:10.899Z,2.42
2022-11-16T23:48:38.471Z,2.53
2022-11-16T23:51:05.377Z,2.63
2022-11-16T23:53:35.200Z,2.60
